Time;durP1;ratioP1;P1;durP2;ratioP2;P2;SDS_P1;SDS_P2;PMS_P1;PMS_P2;Temp;Humidity;BMP_temperature;BMP_pressure;BME280_temperature;BME280_humidity;BME280_pressure;Samples;Min_cycle;Max_cycle;Signal;HPM_P1;HPM_P2
2023/04/14 00:00:41;;;;;;;12.82;5.90;;;;;;;3.63;100.00;100896.09;4999201;28;20057;-82
2023/04/14 00:03:09;;;;;;;9.60;3.50;;;;;;;3.63;100.00;100900.38;4988637;28;20054;-82
2023/04/14 00:05:37;;;;;;;8.38;3.15;;;;;;;3.66;100.00;100905.72;5008664;28;20033;-82
2023/04/14 00:08:05;;;;;;;8.50;2.35;;;;;;;3.66;100.00;100905.72;4992522;28;20060;-81
2023/04/14 00:10:34;;;;;;;15.18;4.40;;;;;;;3.64;100.00;100900.44;5005935;28;20046;-82
2023/04/14 00:13:02;;;;;;;10.48;3.00;;;;;;;3.64;100.00;100907.38;4980715;28;20053;-82
2023/04/14 00:15:29;;;;;;;13.10;3.35;;;;;;;3.62;100.00;100904.72;5004372;28;20046;-82
2023/04/14 00:17:57;;;;;;;13.40;3.20;;;;;;;3.61;100.00;100900.38;4976026;28;20065;-82
2023/04/14 00:20:24;;;;;;;12.00;2.53;;;;;;;3.60;100.00;100901.19;5020137;28;20064;-82
2023/04/14 00:22:52;;;;;;;12.05;3.28;;;;;;;3.62;100.00;100906.44;4995994;28;20070;-82
2023/04/14 00:25:19;;;;;;;11.18;3.45;;;;;;;3.62;100.00;100909.06;4990971;28;20050;-83
2023/04/14 00:27:47;;;;;;;9.88;3.03;;;;;;;3.62;100.00;100903.84;4985981;28;20060;-81
2023/04/14 00:30:15;;;;;;;9.70;2.92;;;;;;;3.60;100.00;100910.72;5011007;28;20712;-82
2023/04/14 00:32:42;;;;;;;13.73;2.63;;;;;;;3.59;100.00;100908.94;4992206;28;20050;-81
2023/04/14 00:35:09;;;;;;;7.85;2.92;;;;;;;3.57;100.00;100908.00;4962986;28;20045;-82
2023/04/14 00:37:36;;;;;;;6.65;2.70;;;;;;;3.53;100.00;100912.25;4992781;28;20058;-82
2023/04/14 00:40:08;;;;;;;8.13;2.80;;;;;;;3.50;100.00;100910.44;4961896;28;20072;-81
2023/04/14 00:42:46;;;;;;;8.85;3.03;;;;;;;3.48;100.00;100911.22;5018493;28;20049;-82
2023/04/14 00:45:14;;;;;;;10.60;2.97;;;;;;;3.46;100.00;100920.69;5015089;28;20053;-83
2023/04/14 00:47:49;;;;;;;10.35;3.17;;;;;;;3.41;100.00;100914.47;5001841;28;20058;-81
2023/04/14 00:50:19;;;;;;;10.80;2.97;;;;;;;3.39;100.00;100924.81;5000265;28;20046;-82
2023/04/14 00:52:49;;;;;;;8.93;2.67;;;;;;;3.38;100.00;100927.38;4977882;28;20066;-82
2023/04/14 00:55:19;;;;;;;10.82;3.30;;;;;;;3.36;100.00;100922.09;4995997;28;20049;-82
2023/04/14 00:57:47;;;;;;;10.30;3.63;;;;;;;3.36;100.00;100929.91;4971317;28;20084;-82
2023/04/14 01:00:15;;;;;;;6.53;3.17;;;;;;;3.35;100.00;100924.69;5011947;28;20059;-81
2023/04/14 01:02:42;;;;;;;9.40;2.78;;;;;;;3.35;100.00;100930.75;4994856;28;20049;-82
2023/04/14 01:05:11;;;;;;;12.90;3.95;;;;;;;3.36;100.00;100926.44;4994906;28;20042;-82
2023/04/14 01:07:39;;;;;;;10.35;3.03;;;;;;;3.36;100.00;100929.03;4986452;28;20069;-81
2023/04/14 01:10:09;;;;;;;15.82;3.03;;;;;;;3.33;100.00;100927.22;4976914;28;20057;-83
2023/04/14 01:13:07;;;;;;;10.05;2.97;;;;;;;3.31;100.00;100934.09;4951254;28;20046;-83
2023/04/14 01:15:42;;;;;;;8.80;2.85;;;;;;;3.28;100.00;100936.59;5003405;28;20064;-82
2023/04/14 01:18:29;;;;;;;10.43;2.88;;;;;;;3.26;100.00;100956.50;4997170;28;20054;-81
2023/04/14 01:21:13;;;;;;;12.70;3.72;;;;;;;3.25;100.00;100959.91;4989247;28;20046;-82
2023/04/14 01:23:53;;;;;;;7.97;3.25;;;;;;;3.26;100.00;100961.69;4998311;28;20046;-82
2023/04/14 01:26:27;;;;;;;12.88;3.25;;;;;;;3.29;100.00;100965.31;4971644;28;20039;-82
2023/04/14 01:29:02;;;;;;;10.80;3.30;;;;;;;3.29;100.00;100973.13;4986755;28;20042;-82
2023/04/14 01:31:41;;;;;;;7.78;2.72;;;;;;;3.30;100.00;100968.78;4989464;28;20057;-82
2023/04/14 01:34:14;;;;;;;9.73;3.05;;;;;;;3.29;100.00;100973.13;5015336;28;20050;-82
2023/04/14 01:36:51;;;;;;;9.38;3.00;;;;;;;3.28;100.00;100970.44;5001208;28;20586;-82
2023/04/14 01:39:23;;;;;;;9.38;3.33;;;;;;;3.27;100.00;100976.47;4991849;28;20046;-82
2023/04/14 01:41:55;;;;;;;10.52;2.83;;;;;;;3.27;100.00;100981.69;4992496;28;20050;-82
2023/04/14 01:44:25;;;;;;;9.60;3.10;;;;;;;3.28;100.00;100986.97;4970463;28;20054;-82
2023/04/14 01:46:59;;;;;;;9.65;3.35;;;;;;;3.28;100.00;100973.06;5012690;28;20360;-82
2023/04/14 01:49:28;;;;;;;10.38;2.63;;;;;;;3.27;100.00;100974.78;5019707;28;20097;-81
2023/04/14 01:51:56;;;;;;;13.70;3.20;;;;;;;3.27;100.00;100981.69;4994071;28;20049;-81
2023/04/14 01:54:25;;;;;;;8.68;3.50;;;;;;;3.26;100.00;100983.41;5005907;28;20057;-81
2023/04/14 01:56:55;;;;;;;7.13;2.85;;;;;;;3.28;100.00;100988.69;5011163;28;20531;-80
2023/04/14 01:59:25;;;;;;;11.27;3.92;;;;;;;3.29;100.00;100985.25;4949284;28;20050;-82
2023/04/14 02:01:54;;;;;;;6.90;2.97;;;;;;;3.28;100.00;100986.97;4982443;28;20557;-82
2023/04/14 02:04:26;;;;;;;11.10;3.60;;;;;;;3.29;100.00;100990.47;5001234;28;20053;-82
2023/04/14 02:06:59;;;;;;;10.02;3.25;;;;;;;3.29;100.00;100991.34;4975409;28;20058;-81
2023/04/14 02:09:29;;;;;;;12.00;3.72;;;;;;;3.28;100.00;100992.16;5001608;28;20054;-82
2023/04/14 02:11:59;;;;;;;;;;;;;;;3.28;100.00;101002.59;5009637;28;20053;-81
2023/04/14 02:14:28;;;;;;;10.15;3.40;;;;;;;3.29;100.00;100993.94;4976491;28;20324;-82
2023/04/14 02:16:58;;;;;;;10.02;3.20;;;;;;;3.28;100.00;100994.78;4989556;28;20050;-81
2023/04/14 02:19:27;;;;;;;10.80;3.57;;;;;;;3.28;100.00;100986.97;5001007;28;20045;-83
2023/04/14 02:21:56;;;;;;;9.35;3.35;;;;;;;3.27;100.00;100995.63;5010013;28;20057;-81
2023/04/14 02:24:23;;;;;;;8.05;4.28;;;;;;;3.26;100.00;101001.66;4981990;28;20142;-83
2023/04/14 02:27:15;;;;;;;13.15;3.08;;;;;;;3.26;100.00;100995.56;4975674;28;20489;-82
2023/04/14 02:29:47;;;;;;;10.98;3.92;;;;;;;3.25;100.00;101002.50;4994738;28;20054;-82
2023/04/14 02:32:22;;;;;;;11.18;3.65;;;;;;;3.22;100.00;100998.91;4988389;28;20054;-82
2023/04/14 02:35:03;;;;;;;7.15;3.58;;;;;;;3.20;100.00;101004.03;4998111;28;20057;-82
2023/04/14 02:37:36;;;;;;;6.82;3.88;;;;;;;3.21;100.00;101010.13;5013051;28;20049;-82
2023/04/14 02:40:11;;;;;;;9.93;3.33;;;;;;;3.19;100.00;101007.47;4999684;28;20054;-82
2023/04/14 02:42:43;;;;;;;8.93;3.60;;;;;;;3.21;100.00;101015.34;5000027;28;20072;-82
2023/04/14 02:45:15;;;;;;;11.23;3.83;;;;;;;3.20;100.00;101006.66;4965582;28;20060;-82
2023/04/14 02:47:46;;;;;;;9.18;3.88;;;;;;;3.22;100.00;101004.97;4981816;28;20103;-82
2023/04/14 02:50:17;;;;;;;6.65;3.60;;;;;;;3.23;100.00;101005.84;5011689;28;20080;-82
2023/04/14 02:52:57;;;;;;;7.55;4.20;;;;;;;3.24;100.00;100999.84;4990120;28;20049;-82
2023/04/14 02:55:30;;;;;;;10.20;3.67;;;;;;;3.26;100.00;101004.25;5000805;28;20069;-82
2023/04/14 02:57:58;;;;;;;7.22;3.47;;;;;;;3.30;100.00;101013.06;4978555;28;20046;-82
2023/04/14 03:00:28;;;;;;;11.88;4.63;;;;;;;3.32;100.00;101020.09;4973482;28;20053;-82
2023/04/14 03:03:00;;;;;;;7.53;3.47;;;;;;;3.36;100.00;101022.81;4966512;28;20475;-80
2023/04/14 03:05:31;;;;;;;14.05;3.83;;;;;;;3.39;100.00;101023.81;4998818;28;20053;-82
2023/04/14 03:08:22;;;;;;;10.48;3.42;;;;;;;3.43;100.00;101025.69;5008178;28;20056;-82
2023/04/14 03:10:51;;;;;;;5.20;3.85;;;;;;;3.49;100.00;101025.00;5010344;28;20057;-82
2023/04/14 03:13:26;;;;;;;7.80;4.03;;;;;;;3.54;100.00;101020.84;5003682;28;20065;-82
2023/04/14 03:15:56;;;;;;;8.90;3.67;;;;;;;3.61;100.00;101011.50;4989398;28;20054;-82
2023/04/14 03:18:26;;;;;;;12.93;3.72;;;;;;;3.66;100.00;101015.16;4961175;28;20046;-82
2023/04/14 03:20:56;;;;;;;7.03;3.28;;;;;;;3.69;100.00;101015.28;4998275;28;20053;-82
2023/04/14 03:23:26;;;;;;;8.18;3.30;;;;;;;3.73;100.00;101016.28;4988399;28;20041;-82
2023/04/14 03:26:00;;;;;;;8.13;3.55;;;;;;;3.75;100.00;101022.44;4980758;28;20030;-83
2023/04/14 03:28:29;;;;;;;;;;;;;;;3.77;100.00;101026.84;5004794;28;20053;-82
2023/04/14 03:31:00;;;;;;;7.43;3.58;;;;;;;3.80;100.00;101019.13;5006189;28;20017;-82
2023/04/14 03:33:37;;;;;;;12.55;3.63;;;;;;;3.84;100.00;101007.97;4988338;28;20053;-83
2023/04/14 03:36:10;;;;;;;8.32;3.72;;;;;;;3.88;100.00;101015.06;4995118;28;20034;-83
2023/04/14 03:38:41;;;;;;;8.10;3.47;;;;;;;3.93;100.00;101011.72;4976984;28;20047;-83
2023/04/14 03:41:10;;;;;;;8.25;3.50;;;;;;;3.96;100.00;101017.03;4994348;28;20061;-82
2023/04/14 03:43:40;;;;;;;7.20;3.40;;;;;;;3.98;100.00;101010.16;4994696;28;20096;-83
2023/04/14 03:46:12;;;;;;;7.57;3.85;;;;;;;4.02;100.00;101012.00;4960127;28;20049;-83
2023/04/14 03:48:43;;;;;;;8.32;3.33;;;;;;;4.03;100.00;101006.84;5007211;28;20072;-82
2023/04/14 03:51:15;;;;;;;10.20;3.55;;;;;;;4.06;100.00;101017.41;4958179;28;20058;-82
2023/04/14 03:53:45;;;;;;;12.75;4.18;;;;;;;4.07;100.00;101013.06;4994675;28;20047;-82
2023/04/14 03:56:14;;;;;;;6.50;3.25;;;;;;;4.07;100.00;101018.28;4987873;28;20047;-84
2023/04/14 03:58:49;;;;;;;9.23;3.72;;;;;;;4.09;100.00;101024.41;4989440;28;20050;-82
2023/04/14 04:01:20;;;;;;;9.35;3.22;;;;;;;4.09;100.00;101017.47;4974098;28;20065;-82
2023/04/14 04:03:47;;;;;;;5.32;3.50;;;;;;;4.12;100.00;101032.34;4951040;28;20063;-82
2023/04/14 04:06:16;;;;;;;7.53;3.40;;;;;;;4.12;100.00;101032.34;4956359;28;20058;-82
2023/04/14 04:08:46;;;;;;;6.38;3.15;;;;;;;4.13;100.00;101034.09;4991090;28;20057;-82
2023/04/14 04:11:17;;;;;;;8.60;3.33;;;;;;;4.12;100.00;101029.75;4985616;28;20043;-83
2023/04/14 04:13:48;;;;;;;8.80;3.28;;;;;;;4.14;100.00;101027.16;4989215;28;20046;-82
2023/04/14 04:16:18;;;;;;;9.30;3.17;;;;;;;4.12;100.00;101026.22;4993121;28;20074;-83
2023/04/14 04:18:47;;;;;;;7.68;3.33;;;;;;;4.12;100.00;101024.53;4997590;28;20061;-82
2023/04/14 04:21:20;;;;;;;6.57;3.40;;;;;;;4.11;100.00;101025.34;4966165;28;20043;-82
2023/04/14 04:23:52;;;;;;;6.53;3.28;;;;;;;4.09;100.00;101034.84;4986687;28;20407;-82
2023/04/14 04:26:22;;;;;;;6.30;3.65;;;;;;;4.08;100.00;101027.84;4990691;28;20061;-82
2023/04/14 04:28:52;;;;;;;8.85;3.50;;;;;;;4.06;100.00;101032.13;4994069;28;20042;-82
2023/04/14 04:31:22;;;;;;;6.47;4.03;;;;;;;4.04;100.00;101033.81;4997482;28;20054;-82
2023/04/14 04:33:50;;;;;;;7.05;3.05;;;;;;;4.00;100.00;101027.59;4984993;28;20054;-81
2023/04/14 04:36:20;;;;;;;7.60;3.47;;;;;;;3.98;100.00;101044.91;4977373;28;20049;-82
2023/04/14 04:38:48;;;;;;;8.77;3.97;;;;;;;3.95;100.00;101047.44;4963068;28;20066;-81
2023/04/14 04:41:24;;;;;;;14.02;3.53;;;;;;;3.93;100.00;101056.03;4973000;28;20046;-82
2023/04/14 04:43:53;;;;;;;4.53;3.10;;;;;;;3.88;100.00;101061.09;4993160;28;20047;-83
2023/04/14 04:46:39;;;;;;;9.95;3.72;;;;;;;3.85;100.00;101055.78;4992962;28;20057;-81
2023/04/14 04:49:07;;;;;;;8.25;3.70;;;;;;;3.80;100.00;101066.06;4986342;28;20081;-82
2023/04/14 04:51:34;;;;;;;7.53;3.70;;;;;;;3.75;100.00;101059.78;4995117;28;20069;-82
2023/04/14 04:54:03;;;;;;;10.32;3.78;;;;;;;3.78;100.00;101072.03;4948100;28;20069;-82
2023/04/14 04:56:31;;;;;;;6.68;3.60;;;;;;;3.75;100.00;101080.66;4990383;28;20054;-82
2023/04/14 04:58:58;;;;;;;9.68;3.40;;;;;;;3.79;100.00;101079.03;4997274;28;20050;-82
2023/04/14 05:01:26;;;;;;;10.95;4.03;;;;;;;3.81;100.00;101073.03;4999934;28;20062;-83
2023/04/14 05:03:54;;;;;;;9.52;4.10;;;;;;;3.85;100.00;101079.25;4984756;28;20059;-82
2023/04/14 05:06:22;;;;;;;13.25;3.65;;;;;;;3.87;100.00;101077.56;4961419;28;20050;-82
2023/04/14 05:08:54;;;;;;;9.32;4.20;;;;;;;3.88;100.00;101067.19;4962442;28;20043;-81
2023/04/14 05:11:22;;;;;;;10.18;4.72;;;;;;;3.92;100.00;101064.72;4988467;28;20062;-81
2023/04/14 05:13:49;;;;;;;10.13;4.25;;;;;;;3.95;100.00;101080.44;4985686;28;20413;-81
2023/04/14 05:16:18;;;;;;;9.85;4.53;;;;;;;4.00;100.00;101073.66;4971177;28;20053;-82
2023/04/14 05:18:46;;;;;;;4.72;3.58;;;;;;;4.03;100.00;101073.78;4998157;28;20053;-81
2023/04/14 05:21:14;;;;;;;7.72;3.13;;;;;;;4.06;100.00;101073.84;4992227;28;20046;-81
2023/04/14 05:23:43;;;;;;;13.75;4.45;;;;;;;4.08;100.00;101072.19;4972261;28;20050;-80
2023/04/14 05:26:12;;;;;;;14.15;5.30;;;;;;;4.10;100.00;101066.19;4978608;28;20042;-82
2023/04/14 05:28:42;;;;;;;4.65;2.95;;;;;;;4.14;100.00;101077.63;4951251;28;20517;-82
2023/04/14 05:31:10;;;;;;;7.72;3.95;;;;;;;4.19;100.00;101081.25;4982481;28;20517;-81
2023/04/14 05:33:38;;;;;;;10.10;4.82;;;;;;;4.27;100.00;101074.59;4974343;28;20050;-82
2023/04/14 05:36:06;;;;;;;12.13;5.20;;;;;;;4.37;100.00;101073.16;4990798;28;20042;-82
2023/04/14 05:38:40;;;;;;;8.93;3.97;;;;;;;4.44;100.00;101063.78;4978571;28;20050;-82
2023/04/14 05:41:08;;;;;;;10.75;4.65;;;;;;;4.56;100.00;101068.53;4988035;28;20046;-84
2023/04/14 05:43:35;;;;;;;8.65;4.53;;;;;;;4.68;100.00;101071.50;4977008;28;20050;-80
2023/04/14 05:46:03;;;;;;;6.25;3.00;;;;;;;4.80;100.00;101068.34;4967038;28;20539;-80
2023/04/14 05:48:32;;;;;;;7.07;3.97;;;;;;;4.91;100.00;101072.19;4978815;28;20043;-79
2023/04/14 05:51:00;;;;;;;9.30;3.70;;;;;;;5.04;100.00;101066.47;4980381;28;20046;-82
2023/04/14 05:53:27;;;;;;;5.45;3.17;;;;;;;5.16;100.00;101065.97;4995552;28;20057;-81
2023/04/14 05:55:56;;;;;;;10.93;3.45;;;;;;;5.30;100.00;101074.19;4935643;28;20051;-81
2023/04/14 05:58:25;;;;;;;6.88;2.78;;;;;;;5.44;100.00;101067.63;4984597;28;20043;-83
2023/04/14 06:00:52;;;;;;;5.90;2.80;;;;;;;5.59;100.00;101066.25;4974739;28;20183;-81
2023/04/14 06:03:20;;;;;;;8.38;3.00;;;;;;;5.72;100.00;101070.97;4992143;28;20043;-82
2023/04/14 06:05:49;;;;;;;5.10;2.97;;;;;;;5.82;100.00;101075.63;4986977;28;20050;-82
2023/04/14 06:08:18;;;;;;;9.40;2.90;;;;;;;5.91;100.00;101074.06;4994670;28;20050;-83
2023/04/14 06:10:45;;;;;;;10.35;2.92;;;;;;;5.98;100.00;101071.69;4949482;28;20053;-82
2023/04/14 06:13:12;;;;;;;4.50;2.60;;;;;;;6.05;100.00;101072.75;4945449;28;20061;-83
2023/04/14 06:15:39;;;;;;;7.95;3.70;;;;;;;6.07;100.00;101068.44;4976337;28;20418;-82
2023/04/14 06:18:07;;;;;;;8.05;3.30;;;;;;;6.26;100.00;101077.63;4988379;28;20054;-82
2023/04/14 06:20:35;;;;;;;6.47;3.28;;;;;;;6.48;100.00;101073.75;4983725;28;20046;-81
2023/04/14 06:23:03;;;;;;;5.00;3.53;;;;;;;6.62;100.00;101072.34;4975321;28;20412;-83
2023/04/14 06:25:32;;;;;;;5.47;3.33;;;;;;;6.89;100.00;101070.31;4960006;28;20053;-80
2023/04/14 06:28:03;;;;;;;9.82;3.17;;;;;;;7.21;100.00;101071.00;4965598;28;20042;-83
2023/04/14 06:30:31;;;;;;;6.30;2.63;;;;;;;7.32;100.00;101069.47;4996895;28;20045;-82
2023/04/14 06:33:03;;;;;;;8.07;2.55;;;;;;;7.36;100.00;101060.81;5010287;28;20053;-82
2023/04/14 06:35:30;;;;;;;10.05;2.95;;;;;;;7.43;100.00;101059.22;4983738;28;20050;-82
2023/04/14 06:38:01;;;;;;;6.55;2.35;;;;;;;7.49;100.00;101066.31;5012638;28;20053;-81
2023/04/14 06:40:28;;;;;;;5.72;2.75;;;;;;;7.53;100.00;101061.16;4963359;28;20041;-81
2023/04/14 06:42:56;;;;;;;7.47;2.35;;;;;;;7.63;100.00;101061.31;4993209;28;20421;-84
2023/04/14 06:45:23;;;;;;;7.78;2.85;;;;;;;7.82;100.00;101052.94;4984267;28;20042;-81
2023/04/14 06:47:50;;;;;;;7.80;2.42;;;;;;;8.03;100.00;101044.53;5006205;28;20061;-81
2023/04/14 06:50:18;;;;;;;6.30;2.65;;;;;;;8.22;100.00;101055.34;4971209;28;20061;-81
2023/04/14 06:52:45;;;;;;;7.63;2.60;;;;;;;8.34;100.00;101050.31;4992189;28;20053;-82
2023/04/14 06:55:13;;;;;;;4.70;2.58;;;;;;;8.50;100.00;101048.81;4990660;28;20386;-80
2023/04/14 06:57:40;;;;;;;12.40;3.08;;;;;;;8.58;100.00;101048.06;4963592;28;20509;-80
2023/04/14 07:00:09;;;;;;;4.80;2.00;;;;;;;8.71;100.00;101054.38;4957529;28;20056;-81
2023/04/14 07:02:37;;;;;;;9.25;2.85;;;;;;;8.87;100.00;101062.50;4968152;28;20054;-83
2023/04/14 07:05:06;;;;;;;7.15;2.53;;;;;;;9.11;100.00;101067.16;4973926;28;20523;-83
2023/04/14 07:07:39;;;;;;;3.28;2.17;;;;;;;9.38;100.00;101061.38;4967443;28;20054;-82
2023/04/14 07:10:09;;;;;;;5.20;2.38;;;;;;;9.62;100.00;101063.41;4980899;28;20809;-84
2023/04/14 07:12:37;;;;;;;9.05;2.60;;;;;;;9.85;100.00;101060.06;4972726;28;20038;-77
2023/04/14 07:15:05;;;;;;;11.27;2.75;;;;;;;10.07;100.00;101056.78;4955174;28;20058;-77
2023/04/14 07:17:35;;;;;;;6.07;2.45;;;;;;;10.31;100.00;101055.25;4987139;28;20702;-79
2023/04/14 07:20:04;;;;;;;7.40;2.00;;;;;;;10.58;100.00;101057.19;4987574;28;20394;-81
2023/04/14 07:22:32;;;;;;;5.50;2.22;;;;;;;10.84;100.00;101059.13;4995337;28;20056;-78
2023/04/14 07:24:59;;;;;;;8.18;2.45;;;;;;;11.01;100.00;101057.44;4954929;28;20047;-79
2023/04/14 07:27:27;;;;;;;8.48;2.15;;;;;;;11.10;100.00;101061.88;4974345;28;20076;-79
2023/04/14 07:29:55;;;;;;;9.13;2.25;;;;;;;11.16;100.00;101064.53;4951795;28;20057;-80
2023/04/14 07:32:23;;;;;;;7.90;1.90;;;;;;;11.19;100.00;101058.38;4974024;28;20066;-78
2023/04/14 07:34:51;;;;;;;5.88;1.65;;;;;;;11.18;100.00;101062.78;5006509;28;20535;-80
2023/04/14 07:37:19;;;;;;;10.38;2.20;;;;;;;11.20;100.00;101062.81;4971392;28;20064;-81
2023/04/14 07:39:47;;;;;;;7.30;2.42;;;;;;;11.23;100.00;101061.06;4977776;28;20394;-79
2023/04/14 07:42:14;;;;;;;6.03;1.52;;;;;;;11.26;100.00;101053.13;4991617;28;20049;-79
2023/04/14 07:44:43;;;;;;;6.28;2.00;;;;;;;11.24;100.00;101061.94;4904361;28;20049;-81
2023/04/14 07:47:10;;;;;;;5.22;2.17;;;;;;;11.22;100.00;101066.31;4972958;28;20050;-77
2023/04/14 07:49:38;;;;;;;7.93;2.42;;;;;;;11.18;100.00;101067.19;4987972;28;20053;-78
2023/04/14 07:52:05;;;;;;;7.88;2.40;;;;;;;11.19;100.00;101067.22;4988843;28;20132;-79
2023/04/14 07:54:33;;;;;;;5.75;1.80;;;;;;;11.23;100.00;101071.63;4976006;28;20465;-79
2023/04/14 07:57:01;;;;;;;8.73;2.53;;;;;;;11.24;100.00;101065.44;4973762;28;20058;-79
2023/04/14 07:59:30;;;;;;;8.27;1.92;;;;;;;11.27;100.00;101065.47;4941269;28;20038;-78
2023/04/14 08:01:57;;;;;;;8.18;1.95;;;;;;;11.30;100.00;101075.13;4994489;28;20046;-78
2023/04/14 08:04:25;;;;;;;6.00;1.88;;;;;;;11.34;100.00;101062.84;4990581;28;20050;-79
2023/04/14 08:06:53;;;;;;;5.40;2.00;;;;;;;11.40;100.00;101073.41;4984512;28;20061;-78
2023/04/14 08:09:20;;;;;;;11.65;2.05;;;;;;;11.44;100.00;101076.09;4979427;28;20042;-78
2023/04/14 08:11:48;;;;;;;11.32;2.55;;;;;;;11.50;100.00;101069.94;4990487;28;20061;-79
2023/04/14 08:14:15;;;;;;;12.43;1.98;;;;;;;11.57;100.00;101068.19;4928009;28;20409;-77
2023/04/14 08:16:43;;;;;;;6.70;2.42;;;;;;;11.66;100.00;101052.38;4974576;28;20058;-79
2023/04/14 08:19:10;;;;;;;7.90;2.08;;;;;;;11.77;100.00;101063.84;4997999;28;20045;-78
2023/04/14 08:21:37;;;;;;;7.88;2.25;;;;;;;11.94;100.00;101058.63;4980374;28;20062;-78
2023/04/14 08:24:05;;;;;;;6.63;2.40;;;;;;;12.11;100.00;101055.97;4975889;28;20046;-78
2023/04/14 08:26:32;;;;;;;6.32;2.30;;;;;;;12.31;100.00;101050.72;4986558;28;20050;-77
2023/04/14 08:29:00;;;;;;;9.40;2.67;;;;;;;12.46;100.00;101049.81;4954544;28;20436;-77
2023/04/14 08:31:28;;;;;;;8.95;2.35;;;;;;;12.60;100.00;101057.72;4947311;28;20492;-78
2023/04/14 08:33:56;;;;;;;8.20;2.75;;;;;;;12.59;100.00;101043.63;4977246;28;20057;-78
2023/04/14 08:36:24;;;;;;;9.75;2.38;;;;;;;12.62;100.00;101048.88;4992049;28;20535;-78
2023/04/14 08:38:52;;;;;;;5.30;2.22;;;;;;;12.73;100.00;101048.88;4979208;28;20077;-81
2023/04/14 08:41:20;;;;;;;8.25;2.38;;;;;;;12.72;100.00;101047.13;4990827;28;20050;-78
2023/04/14 08:43:48;;;;;;;7.03;2.10;;;;;;;12.76;100.00;101055.91;4996157;28;20463;-80
2023/04/14 08:46:18;;;;;;;9.65;3.55;;;;;;;12.73;100.00;101054.16;4920494;28;20053;-80
2023/04/14 08:48:49;;;;;;;8.90;2.30;;;;;;;12.86;100.00;101055.88;4984818;28;20053;-79
2023/04/14 08:51:25;;;;;;;9.32;2.75;;;;;;;12.99;100.00;101055.88;4974350;28;20054;-79
2023/04/14 08:53:55;;;;;;;11.90;2.90;;;;;;;13.09;100.00;101051.41;5003269;28;20065;-80
2023/04/14 08:56:26;;;;;;;5.88;1.98;;;;;;;13.19;100.00;101054.00;4966499;28;20524;-80
2023/04/14 08:58:53;;;;;;;8.38;2.80;;;;;;;13.31;100.00;101052.22;4987998;28;20690;-79
2023/04/14 09:01:21;;;;;;;7.30;2.72;;;;;;;13.33;100.00;101053.97;4916807;28;20046;-79
2023/04/14 09:03:49;;;;;;;6.18;2.83;;;;;;;13.21;100.00;101049.59;4980298;28;20046;-79
2023/04/14 09:06:17;;;;;;;8.50;2.67;;;;;;;12.95;97.54;101059.38;5009353;28;20034;-79
2023/04/14 09:08:45;;;;;;;6.47;2.75;;;;;;;12.64;95.57;101046.25;4990139;28;20386;-79
2023/04/14 09:11:14;;;;;;;5.20;2.45;;;;;;;12.42;94.67;101051.59;4967264;28;20077;-80
2023/04/14 09:13:43;;;;;;;;;;;;;;;12.21;88.11;101048.94;5001553;28;20417;-79
2023/04/14 09:16:11;;;;;;;9.68;2.58;;;;;;;12.11;94.13;101044.53;4987230;28;19921;-79
2023/04/14 09:18:39;;;;;;;8.75;1.85;;;;;;;12.00;94.70;101044.53;4943182;28;20061;-78
2023/04/14 09:21:08;;;;;;;8.07;1.58;;;;;;;11.99;95.21;101046.31;5004189;28;20047;-79
2023/04/14 09:23:55;;;;;;;9.02;2.30;;;;;;;12.01;96.29;101044.53;4982812;28;20057;-79
2023/04/14 09:26:26;;;;;;;5.20;1.58;;;;;;;12.00;93.49;101045.44;4965959;28;20045;-79
2023/04/14 09:28:53;;;;;;;5.65;1.50;;;;;;;12.06;93.33;101050.72;4988151;28;20049;-79
2023/04/14 09:31:21;;;;;;;3.35;1.30;;;;;;;12.09;93.93;101053.34;4975311;28;20417;-79
2023/04/14 09:33:49;;;;;;;5.65;1.58;;;;;;;12.03;89.74;101045.41;4916388;28;20064;-80
2023/04/14 09:36:22;;;;;;;4.82;1.50;;;;;;;11.95;90.33;101049.81;4966067;28;20062;-80
2023/04/14 09:38:50;;;;;;;4.82;1.77;;;;;;;11.98;90.46;101052.44;4984064;28;20042;-80
2023/04/14 09:41:24;;;;;;;8.00;1.70;;;;;;;12.02;89.77;101050.69;4967640;28;20057;-80
2023/04/14 09:43:52;;;;;;;12.07;2.15;;;;;;;11.95;86.66;101047.19;4981991;28;20049;-80
2023/04/14 09:46:19;;;;;;;5.40;1.77;;;;;;;11.99;89.08;101041.03;5006339;28;20053;-80
2023/04/14 09:48:55;;;;;;;4.93;1.60;;;;;;;12.11;83.93;101047.19;4913561;28;20062;-80
2023/04/14 09:51:27;;;;;;;6.13;1.55;;;;;;;12.13;86.29;101046.28;4999226;28;20053;-79
2023/04/14 09:54:01;;;;;;;3.45;1.60;;;;;;;12.17;84.22;101048.06;4987178;28;20080;-79
2023/04/14 09:56:29;;;;;;;7.68;1.90;;;;;;;12.22;87.11;101050.72;4988310;28;20048;-79
2023/04/14 09:59:00;;;;;;;5.85;2.13;;;;;;;12.21;86.40;101048.94;4996218;28;20049;-79
2023/04/14 10:01:31;;;;;;;6.30;2.17;;;;;;;12.05;89.62;101030.44;4966173;28;20070;-79
2023/04/14 10:04:00;;;;;;;3.70;2.20;;;;;;;12.12;93.08;101041.00;4943357;28;20219;-79
2023/04/14 10:06:30;;;;;;;5.28;2.50;;;;;;;12.09;94.11;101040.13;4983664;28;20046;-79
2023/04/14 10:09:00;;;;;;;5.65;2.80;;;;;;;12.12;95.15;101038.38;4987781;28;20054;-80
2023/04/14 10:11:31;;;;;;;8.93;2.90;;;;;;;12.15;96.38;101035.72;4991637;28;20045;-80
2023/04/14 10:14:03;;;;;;;;;;;;;;;12.13;93.00;101030.44;4982288;28;20061;-80
2023/04/14 10:16:32;;;;;;;11.35;2.58;;;;;;;12.21;98.00;101031.34;4971672;28;19925;-77
2023/04/14 10:19:00;;;;;;;7.43;2.67;;;;;;;12.32;98.06;101030.44;4989148;28;20408;-77
2023/04/14 10:21:29;;;;;;;5.18;2.42;;;;;;;12.43;97.28;101039.25;4940592;28;20061;-79
2023/04/14 10:23:57;;;;;;;5.60;2.05;;;;;;;12.56;99.30;101021.59;4996289;28;20042;-79
2023/04/14 10:26:25;;;;;;;4.55;2.38;;;;;;;12.74;98.71;101028.59;5009427;28;20050;-78
2023/04/14 10:28:54;;;;;;;4.40;2.00;;;;;;;12.91;96.22;101020.59;4963635;28;20287;-79
2023/04/14 10:31:33;;;;;;;5.57;2.40;;;;;;;13.00;97.09;101013.50;5003501;28;20412;-78
2023/04/14 10:34:09;;;;;;;4.93;2.13;;;;;;;13.13;92.11;101022.28;4976056;28;20053;-78
2023/04/14 10:36:38;;;;;;;7.05;2.53;;;;;;;13.21;91.90;101027.53;4942138;28;20046;-79
2023/04/14 10:39:10;;;;;;;12.00;2.80;;;;;;;13.27;91.88;101023.09;4986540;28;20053;-81
2023/04/14 10:41:41;;;;;;;8.07;3.25;;;;;;;13.40;91.40;101015.09;4988468;28;20061;-79
2023/04/14 10:44:25;;;;;;;5.25;2.90;;;;;;;13.48;82.82;101012.41;4959731;28;20053;-80
2023/04/14 10:46:59;;;;;;;5.63;2.80;;;;;;;13.54;89.06;101007.09;4987432;28;20057;-79
2023/04/14 10:49:38;;;;;;;5.20;3.03;;;;;;;13.58;87.67;101006.19;4992006;28;20061;-79
2023/04/14 10:52:15;;;;;;;7.47;3.53;;;;;;;13.66;89.60;101004.34;4919924;28;20054;-81
2023/04/14 10:55:02;;;;;;;8.63;2.92;;;;;;;13.74;82.73;101001.66;4983282;28;20521;-79
2023/04/14 10:57:35;;;;;;;7.03;2.92;;;;;;;13.76;86.54;101010.47;5004789;28;20102;-82
2023/04/14 11:00:30;;;;;;;11.65;3.60;;;;;;;13.74;85.98;101002.56;4972166;28;20077;-82
2023/04/14 11:03:03;;;;;;;6.65;3.40;;;;;;;13.87;89.04;100999.78;4987747;28;20061;-78
2023/04/14 11:05:33;;;;;;;11.07;3.92;;;;;;;14.00;90.12;100989.06;5008666;28;20082;-79
2023/04/14 11:08:11;;;;;;;5.05;3.25;;;;;;;14.14;88.05;100988.06;4930328;28;20058;-80
2023/04/14 11:10:40;;;;;;;42.22;6.40;;;;;;;14.33;90.27;100991.41;4978028;28;20046;-78
2023/04/14 11:13:11;;;;;;;15.98;3.70;;;;;;;14.54;89.42;100990.34;4990274;28;20050;-79
2023/04/14 11:16:04;;;;;;;6.60;3.03;;;;;;;14.72;86.48;100992.78;4981566;28;20555;-77
2023/04/14 11:18:36;;;;;;;7.97;2.92;;;;;;;14.88;86.41;100982.03;4971074;28;20057;-80
2023/04/14 11:21:08;;;;;;;8.68;3.05;;;;;;;15.02;86.27;100986.25;4966284;28;20791;-80
2023/04/14 11:23:37;;;;;;;5.15;2.50;;;;;;;15.16;82.36;100971.91;4922500;28;20538;-81
2023/04/14 11:26:06;;;;;;;6.18;2.50;;;;;;;15.25;85.03;100976.22;4944570;28;20081;-80
2023/04/14 11:28:36;;;;;;;6.00;3.03;;;;;;;15.39;82.72;100979.56;5002795;28;20058;-78
2023/04/14 11:31:07;;;;;;;7.63;2.83;;;;;;;15.48;82.56;100974.13;4977212;28;20042;-81
2023/04/14 11:33:37;;;;;;;5.82;2.63;;;;;;;15.39;80.28;100979.56;4977157;28;20416;-81
2023/04/14 11:36:08;;;;;;;9.20;3.00;;;;;;;15.30;79.74;100971.72;4987621;28;20061;-81